| time (UTC) | temp C | wind direction | speed KPH | gust KPH | rain 1hr cm | rain 24hr cm | rain mn cm | humidity % | barometer mb |
| 20260504174201 | 25 | 283 | 9.7 | 12.9 | 0.00 | 0.05 | 0.00 | 35 | 1001.5 |
| 20260504174100 | 25 | 248 | 9.7 | 11.3 | 0.00 | 0.05 | 0.00 | 37 | 1001.5 |
| 20260504174002 | 25 | 342 | 8.0 | 11.3 | 0.00 | 0.05 | 0.00 | 37 | 1001.5 |
| 20260504173901 | 25 | 311 | 1.6 | 11.3 | 0.00 | 0.05 | 0.00 | 37 | 1001.5 |
| 20260504173801 | 25 | 30 | 3.2 | 11.3 | 0.00 | 0.05 | 0.00 | 36 | 1001.5 |
| 20260504173601 | 25 | 315 | 3.2 | 14.5 | 0.00 | 0.05 | 0.00 | 39 | 1001.5 |
| 20260504173500 | 25 | 307 | 1.6 | 14.5 | 0.00 | 0.05 | 0.00 | 39 | 1001.6 |
| 20260504173400 | 25 | 47 | 1.6 | 14.5 | 0.00 | 0.05 | 0.00 | 38 | 1001.5 |
| 20260504173302 | 25 | 133 | 1.6 | 14.5 | 0.00 | 0.05 | 0.00 | 38 | 1001.5 |
| 20260504173102 | 25 | 267 | 3.2 | 14.5 | 0.00 | 0.05 | 0.00 | 36 | 1001.5 |
| 20260504173000 | 25 | 298 | 6.4 | 14.5 | 0.00 | 0.05 | 0.00 | 37 | 1001.8 |
| 20260504172901 | 25 | 274 | 9.7 | 14.5 | 0.00 | 0.05 | 0.00 | 36 | 1001.7 |
| 20260504172600 | 25 | 38 | 1.6 | 8.0 | 0.00 | 0.05 | 0.00 | 40 | 1001.7 |
| 20260504172501 | 25 | 313 | 1.6 | 8.0 | 0.00 | 0.05 | 0.00 | 40 | 1001.6 |
| 20260504172401 | 25 | 308 | 1.6 | 8.0 | 0.00 | 0.05 | 0.00 | 38 | 1001.6 |
| 20260504172301 | 25 | 333 | 8.0 | 8.0 | 0.00 | 0.05 | 0.00 | 39 | 1001.6 |
| 20260504172200 | 25 | 17 | 1.6 | 8.0 | 0.00 | 0.05 | 0.00 | 41 | 1001.6 |
| 20260504172102 | 25 | 295 | 4.8 | 4.8 | 0.00 | 0.05 | 0.00 | 41 | 1001.7 |
| 20260504172001 | 25 | 186 | 3.2 | 9.7 | 0.00 | 0.05 | 0.00 | 41 | 1001.8 |
| 20260504171901 | 25 | 17 | 1.6 | 12.9 | 0.00 | 0.05 | 0.00 | 43 | 1001.9 |
| 20260504171800 | 25 | 26 | 1.6 | 12.9 | 0.00 | 0.05 | 0.00 | 40 | 1001.7 |
| 20260504171700 | 25 | 51 | 0.0 | 12.9 | 0.00 | 0.05 | 0.00 | 40 | 1001.8 |
| 20260504171602 | 25 | 295 | 1.6 | 12.9 | 0.00 | 0.05 | 0.00 | 43 | 1001.9 |
| 20260504171500 | 25 | 39 | 4.8 | 12.9 | 0.00 | 0.05 | 0.00 | 40 | 1001.7 |
| 20260504171402 | 25 | 345 | 1.6 | 12.9 | 0.00 | 0.05 | 0.00 | 39 | 1001.8 |
| 20260504171300 | 25 | 309 | 1.6 | 12.9 | 0.00 | 0.05 | 0.00 | 37 | 1001.9 |
| 20260504171201 | 25 | 292 | 4.8 | 12.9 | 0.00 | 0.05 | 0.00 | 37 | 1001.9 |
| 20260504171000 | 25 | 63 | 3.2 | 12.9 | 0.00 | 0.05 | 0.00 | 40 | 1001.9 |
| 20260504170802 | 25 | 339 | 1.6 | 12.9 | 0.00 | 0.05 | 0.00 | 43 | 1001.9 |
| 20260504170702 | 25 | 308 | 1.6 | 12.9 | 0.00 | 0.05 | 0.00 | 41 | 1002.0 |
| 20260504170601 | 25 | 288 | 4.8 | 12.9 | 0.00 | 0.05 | 0.00 | 39 | 1002.0 |
| 20260504170500 | 25 | 304 | 3.2 | 12.9 | 0.00 | 0.05 | 0.00 | 39 | 1001.9 |
| 20260504170204 | 25 | 262 | 3.2 | 12.9 | 0.00 | 0.05 | 0.00 | 43 | 1001.9 |
| 20260504160401 | 23 | 321 | 0.0 | 8.0 | 0.00 | 0.08 | 0.00 | 49 | 1003.1 |
| 20260504160301 | 22 | 105 | 1.6 | 8.0 | 0.00 | 0.08 | 0.00 | 50 | 1003.0 |
| 20260504151059 | 21 | 323 | 1.6 | 6.4 | 0.00 | 0.23 | 0.00 | 51 | 1003.6 |
| 20260504151001 | 21 | 311 | 3.2 | 9.7 | 0.00 | 0.23 | 0.00 | 51 | 1003.7 |
| 20260504150900 | 21 | 139 | 3.2 | 9.7 | 0.00 | 0.23 | 0.00 | 50 | 1003.6 |
| 20260504150800 | 21 | 284 | 0.0 | 9.7 | 0.00 | 0.23 | 0.00 | 49 | 1003.6 |
| 20260504150701 | 21 | 236 | 3.2 | 9.7 | 0.00 | 0.23 | 0.00 | 50 | 1003.7 |
| 20260504150600 | 21 | 358 | 1.6 | 9.7 | 0.00 | 0.23 | 0.00 | 49 | 1003.7 |
| 20260504150501 | 21 | 61 | 1.6 | 9.7 | 0.00 | 0.23 | 0.00 | 51 | 1003.7 |
| 20260504150359 | 21 | 356 | 4.8 | 9.7 | 0.00 | 0.23 | 0.00 | 50 | 1003.7 |
| 20260504150259 | 21 | 304 | 1.6 | 9.7 | 0.00 | 0.23 | 0.00 | 52 | 1003.7 |
| 20260504150200 | 21 | 13 | 3.2 | 9.7 | 0.00 | 0.23 | 0.00 | 50 | 1003.8 |
| 20260504141300 | 18 | 326 | 0.0 | 8.0 | 0.00 | 0.28 | 0.00 | 57 | 1004.2 |
| 20260504141200 | 18 | 244 | 6.4 | 8.0 | 0.00 | 0.28 | 0.00 | 57 | 1004.1 |
| 20260504141101 | 18 | 283 | 8.0 | 8.0 | 0.00 | 0.28 | 0.00 | 57 | 1004.2 |
| 20260504141000 | 18 | 257 | 4.8 | 8.0 | 0.00 | 0.28 | 0.00 | 59 | 1004.3 |
| 20260504140900 | 18 | 315 | 4.8 | 4.8 | 0.00 | 0.28 | 0.00 | 60 | 1004.3 |
| 20260504140801 | 18 | 25 | 0.0 | 8.0 | 0.00 | 0.28 | 0.00 | 60 | 1004.2 |
| 20260504140700 | 18 | 1 | 1.6 | 8.0 | 0.00 | 0.28 | 0.00 | 63 | 1004.3 |
| 20260504140602 | 18 | 283 | 1.6 | 8.0 | 0.00 | 0.28 | 0.00 | 62 | 1004.3 |
| 20260504140402 | 18 | 272 | 1.6 | 8.0 | 0.00 | 0.28 | 0.00 | 61 | 1004.3 |
| 20260504140300 | 18 | 63 | 0.0 | 8.0 | 0.00 | 0.28 | 0.00 | 61 | 1004.3 |
| 20260504140200 | 18 | 150 | 1.6 | 8.0 | 0.00 | 0.28 | 0.00 | 61 | 1004.4 |
| 20260504130800 | 15 | 309 | 0.0 | 1.6 | 0.00 | 0.28 | 0.00 | 71 | 1005.0 |
| 20260504130659 | 15 | 319 | 0.0 | 3.2 | 0.00 | 0.28 | 0.00 | 71 | 1005.0 |
| 20260504130559 | 15 | 319 | 0.0 | 3.2 | 0.00 | 0.28 | 0.00 | 71 | 1005.1 |
| 20260504130459 | 15 | 88 | 0.0 | 3.2 | 0.00 | 0.28 | 0.00 | 72 | 1005.1 |
| 20260504130359 | 15 | 326 | 0.0 | 3.2 | 0.00 | 0.28 | 0.00 | 72 | 1005.1 |
| 20260504120300 | 11 | 95 | 0.0 | 1.6 | 0.00 | 0.28 | 0.00 | 83 | 1005.2 |
| 20260504120200 | 11 | 95 | 0.0 | 1.6 | 0.00 | 0.28 | 0.00 | 83 | 1005.2 |
| 20260504110601 | 5 | 299 | 0.0 | 0.0 | 0.00 | 0.28 | 0.00 | 92 | 1005.3 |
| 20260504110500 | 5 | 299 | 0.0 | 0.0 | 0.00 | 0.28 | 0.00 | 92 | 1005.2 |
| 20260504110359 | 5 | 299 | 0.0 | 1.6 | 0.00 | 0.28 | 0.00 | 92 | 1005.0 |
| 20260504110300 | 5 | 299 | 0.0 | 1.6 | 0.00 | 0.28 | 0.00 | 92 | 1005.0 |
| 20260504110159 | 5 | 299 | 0.0 | 1.6 | 0.00 | 0.28 | 0.00 | 92 | 1005.0 |
| 20260504100359 | 5 | 274 | 0.0 | 0.0 | 0.00 | 0.28 | 0.00 | 91 | 1005.5 |
| 20260504100259 | 5 | 274 | 0.0 | 0.0 | 0.00 | 0.28 | 0.00 | 91 | 1005.5 |
| 20260504100159 | 5 | 275 | 0.0 | 0.0 | 0.00 | 0.28 | 0.00 | 91 | 1005.4 |
| 20260504081959 | 6 | 274 | 0.0 | 0.0 | 0.00 | 0.28 | 0.00 | 89 | 1005.4 |
| 20260504081859 | 6 | 274 | 0.0 | 0.0 | 0.00 | 0.28 | 0.00 | 89 | 1005.3 |
| 20260504081759 | 6 | 274 | 0.0 | 0.0 | 0.00 | 0.28 | 0.00 | 89 | 1005.3 |
| 20260504081559 | 6 | 274 | 0.0 | 0.0 | 0.00 | 0.28 | 0.00 | 89 | 1005.3 |
| 20260504081459 | 6 | 274 | 0.0 | 0.0 | 0.00 | 0.28 | 0.00 | 89 | 1005.3 |
| 20260504081402 | 6 | 274 | 0.0 | 0.0 | 0.00 | 0.28 | 0.00 | 89 | 1005.3 |
| 20260504081300 | 6 | 274 | 0.0 | 0.0 | 0.00 | 0.28 | 0.00 | 89 | 1005.2 |
| 20260504081058 | 6 | 275 | 0.0 | 0.0 | 0.00 | 0.28 | 0.00 | 89 | 1005.3 |
| 20260504081000 | 6 | 274 | 0.0 | 0.0 | 0.00 | 0.28 | 0.00 | 89 | 1005.2 |
| 20260504080801 | 6 | 274 | 0.0 | 0.0 | 0.00 | 0.28 | 0.00 | 89 | 1005.3 |
| 20260504080659 | 6 | 274 | 0.0 | 0.0 | 0.00 | 0.28 | 0.00 | 89 | 1005.3 |
| 20260504080459 | 6 | 274 | 0.0 | 0.0 | 0.00 | 0.28 | 0.00 | 89 | 1005.3 |
| 20260504080400 | 6 | 274 | 0.0 | 0.0 | 0.00 | 0.28 | 0.00 | 89 | 1005.3 |
| 20260504080258 | 6 | 274 | 0.0 | 0.0 | 0.00 | 0.28 | 0.00 | 89 | 1005.3 |
| 20260504080202 | 6 | 274 | 0.0 | 0.0 | 0.00 | 0.28 | 0.00 | 89 | 1005.3 |
| 20260504070402 | 8 | 274 | 0.0 | 0.0 | 0.00 | 0.28 | 0.00 | 81 | 1005.9 |
| 20260504070159 | 8 | 275 | 0.0 | 0.0 | 0.00 | 0.28 | 0.00 | 81 | 1006.0 |
| 20260504060158 | 11 | 302 | 1.6 | 4.8 | 0.00 | 0.28 | 0.00 | 75 | 1006.7 |
| 20260504050702 | 11 | 299 | 0.0 | 1.6 | 0.00 | 0.28 | 0.00 | 76 | 1007.1 |
| 20260504050602 | 11 | 300 | 0.0 | 1.6 | 0.00 | 0.28 | 0.00 | 76 | 1007.2 |
| 20260504050502 | 11 | 299 | 0.0 | 1.6 | 0.00 | 0.28 | 0.00 | 76 | 1007.1 |
| 20260504050402 | 11 | 299 | 0.0 | 1.6 | 0.00 | 0.28 | 0.00 | 76 | 1007.2 |
| 20260504050302 | 11 | 299 | 0.0 | 3.2 | 0.00 | 0.28 | 0.00 | 76 | 1007.1 |
| 20260504050202 | 11 | 300 | 0.0 | 3.2 | 0.00 | 0.28 | 0.00 | 76 | 1007.1 |
| 20260504050002 | 12 | 300 | 0.0 | 3.2 | 0.00 | 0.28 | 0.28 | 75 | 1007.2 |
| 20260504045901 | 12 | 300 | 0.0 | 3.2 | 0.00 | 0.28 | 0.28 | 75 | 1007.1 |
| 20260504045802 | 12 | 299 | 0.0 | 3.2 | 0.00 | 0.28 | 0.28 | 75 | 1007.1 |
| 20260504045701 | 12 | 299 | 0.0 | 3.2 | 0.00 | 0.28 | 0.28 | 75 | 1007.1 |
| 20260504045602 | 12 | 299 | 0.0 | 3.2 | 0.00 | 0.28 | 0.28 | 75 | 1007.2 |
| 20260504045501 | 12 | 300 | 1.6 | 3.2 | 0.00 | 0.28 | 0.28 | 75 | 1007.1 |
| 20260504045402 | 12 | 310 | 0.0 | 3.2 | 0.00 | 0.28 | 0.28 | 75 | 1007.1 |
| 20260504045301 | 12 | 309 | 0.0 | 3.2 | 0.00 | 0.28 | 0.28 | 75 | 1007.1 |
| 20260504045201 | 12 | 309 | 0.0 | 3.2 | 0.00 | 0.28 | 0.28 | 75 | 1007.1 |
| 20260504045002 | 12 | 308 | 0.0 | 4.8 | 0.00 | 0.28 | 0.28 | 75 | 1007.1 |
| 20260504044901 | 12 | 308 | 1.6 | 4.8 | 0.00 | 0.28 | 0.28 | 75 | 1007.2 |
| 20260504044801 | 12 | 309 | 0.0 | 4.8 | 0.00 | 0.28 | 0.28 | 75 | 1007.1 |
| 20260504044701 | 12 | 309 | 0.0 | 4.8 | 0.00 | 0.28 | 0.28 | 75 | 1007.2 |
| 20260504044601 | 12 | 309 | 0.0 | 4.8 | 0.00 | 0.28 | 0.28 | 75 | 1007.2 |
| 20260504044501 | 12 | 253 | 1.6 | 4.8 | 0.00 | 0.28 | 0.28 | 75 | 1007.1 |
| 20260504044401 | 12 | 316 | 0.0 | 4.8 | 0.00 | 0.28 | 0.28 | 75 | 1007.1 |
| 20260504044301 | 12 | 344 | 4.8 | 4.8 | 0.00 | 0.28 | 0.28 | 75 | 1007.1 |
| 20260504044201 | 12 | 319 | 0.0 | 4.8 | 0.00 | 0.28 | 0.28 | 75 | 1007.0 |
| 20260504044102 | 12 | 359 | 1.6 | 4.8 | 0.00 | 0.28 | 0.28 | 75 | 1007.1 |
| 20260504044001 | 12 | 312 | 0.0 | 4.8 | 0.00 | 0.28 | 0.28 | 75 | 1007.1 |
| 20260504043901 | 12 | 310 | 0.0 | 4.8 | 0.00 | 0.28 | 0.28 | 75 | 1007.0 |
| 20260504043802 | 12 | 311 | 0.0 | 4.8 | 0.00 | 0.28 | 0.28 | 75 | 1007.0 |
| 20260504043701 | 12 | 300 | 0.0 | 4.8 | 0.00 | 0.28 | 0.28 | 75 | 1007.1 |
| 20260504043602 | 12 | 299 | 0.0 | 4.8 | 0.00 | 0.28 | 0.28 | 75 | 1007.0 |
| 20260504043501 | 12 | 358 | 1.6 | 3.2 | 0.00 | 0.28 | 0.28 | 75 | 1007.1 |
| 20260504043401 | 12 | 17 | 3.2 | 3.2 | 0.00 | 0.28 | 0.28 | 75 | 1007.1 |
| 20260504043302 | 12 | 339 | 0.0 | 1.6 | 0.00 | 0.28 | 0.28 | 75 | 1007.0 |
| 20260504043201 | 12 | 339 | 0.0 | 1.6 | 0.00 | 0.28 | 0.28 | 75 | 1007.0 |
| 20260504043101 | 12 | 339 | 0.0 | 1.6 | 0.00 | 0.28 | 0.28 | 75 | 1007.0 |
| 20260504043002 | 12 | 330 | 1.6 | 1.6 | 0.00 | 0.28 | 0.28 | 75 | 1007.0 |
| 20260504042903 | 12 | 283 | 1.6 | 1.6 | 0.00 | 0.28 | 0.28 | 75 | 1007.0 |
| 20260504042802 | 12 | 274 | 0.0 | 1.6 | 0.00 | 0.28 | 0.28 | 75 | 1007.0 |
| 20260504042601 | 12 | 248 | 0.0 | 1.6 | 0.00 | 0.28 | 0.28 | 75 | 1007.0 |
| 20260504042501 | 12 | 231 | 0.0 | 3.2 | 0.00 | 0.28 | 0.28 | 75 | 1007.0 |
| 20260504042401 | 12 | 231 | 0.0 | 3.2 | 0.00 | 0.28 | 0.28 | 75 | 1007.0 |
| 20260504042301 | 12 | 231 | 0.0 | 3.2 | 0.00 | 0.28 | 0.28 | 75 | 1007.0 |
| 20260504042201 | 12 | 231 | 0.0 | 3.2 | 0.00 | 0.28 | 0.28 | 75 | 1007.0 |
| 20260504042102 | 12 | 231 | 0.0 | 3.2 | 0.00 | 0.28 | 0.28 | 75 | 1007.0 |
| 20260504042001 | 12 | 231 | 0.0 | 3.2 | 0.00 | 0.28 | 0.28 | 76 | 1007.0 |
| 20260504041902 | 12 | 231 | 0.0 | 3.2 | 0.00 | 0.28 | 0.28 | 76 | 1006.9 |
| 20260504041501 | 11 | 29 | 0.0 | 3.2 | 0.00 | 0.28 | 0.28 | 76 | 1006.9 |
| 20260504041401 | 11 | 105 | 0.0 | 3.2 | 0.00 | 0.28 | 0.28 | 77 | 1006.9 |
| 20260504041304 | 11 | 105 | 0.0 | 3.2 | 0.00 | 0.28 | 0.28 | 77 | 1006.9 |
| 20260504041001 | 11 | 56 | 0.0 | 3.2 | 0.00 | 0.28 | 0.28 | 78 | 1006.9 |
| 20260504040501 | 11 | 34 | 0.0 | 0.0 | 0.00 | 0.28 | 0.28 | 78 | 1006.9 |
| 20260504040401 | 11 | 34 | 0.0 | 0.0 | 0.00 | 0.28 | 0.28 | 78 | 1006.9 |
| 20260504040301 | 11 | 33 | 0.0 | 0.0 | 0.00 | 0.28 | 0.28 | 78 | 1006.8 |
| 20260504040201 | 11 | 33 | 0.0 | 0.0 | 0.00 | 0.28 | 0.28 | 78 | 1006.8 |
| 20260504040000 | 10 | 34 | 0.0 | 0.0 | 0.00 | 0.28 | 0.28 | 78 | 1006.9 |
| 20260504035901 | 10 | 34 | 0.0 | 0.0 | 0.00 | 0.28 | 0.28 | 78 | 1006.8 |
| 20260504035801 | 10 | 34 | 0.0 | 0.0 | 0.00 | 0.28 | 0.28 | 78 | 1006.9 |
| 20260504035701 | 10 | 33 | 0.0 | 0.0 | 0.00 | 0.28 | 0.28 | 78 | 1006.9 |
| 20260504035502 | 10 | 33 | 0.0 | 0.0 | 0.00 | 0.28 | 0.28 | 78 | 1006.9 |
| 20260504035401 | 10 | 34 | 0.0 | 0.0 | 0.00 | 0.28 | 0.28 | 78 | 1006.9 |
| 20260504035202 | 10 | 33 | 0.0 | 0.0 | 0.00 | 0.28 | 0.28 | 78 | 1006.9 |
| 20260504035101 | 10 | 34 | 0.0 | 0.0 | 0.00 | 0.28 | 0.28 | 78 | 1006.9 |
| 20260504035001 | 10 | 34 | 0.0 | 0.0 | 0.00 | 0.28 | 0.28 | 78 | 1006.9 |
| 20260504034901 | 10 | 33 | 0.0 | 0.0 | 0.00 | 0.28 | 0.28 | 78 | 1007.0 |
| 20260504034701 | 10 | 34 | 0.0 | 0.0 | 0.00 | 0.28 | 0.28 | 78 | 1007.0 |
| 20260504034601 | 10 | 33 | 0.0 | 0.0 | 0.00 | 0.28 | 0.28 | 78 | 1007.0 |
| 20260504034501 | 10 | 33 | 0.0 | 0.0 | 0.00 | 0.28 | 0.28 | 78 | 1006.9 |
| 20260504034401 | 10 | 33 | 0.0 | 0.0 | 0.00 | 0.28 | 0.28 | 78 | 1007.0 |
| 20260504034301 | 10 | 34 | 0.0 | 0.0 | 0.00 | 0.28 | 0.28 | 78 | 1007.0 |
| 20260504034201 | 10 | 34 | 0.0 | 0.0 | 0.00 | 0.28 | 0.28 | 78 | 1007.0 |
| 20260504034101 | 10 | 34 | 0.0 | 0.0 | 0.00 | 0.28 | 0.28 | 77 | 1007.0 |
| 20260504034003 | 10 | 34 | 0.0 | 0.0 | 0.00 | 0.28 | 0.28 | 77 | 1006.9 |
| 20260504033901 | 10 | 34 | 0.0 | 0.0 | 0.00 | 0.28 | 0.28 | 77 | 1007.0 |
| 20260504033801 | 10 | 34 | 0.0 | 0.0 | 0.00 | 0.28 | 0.28 | 77 | 1007.0 |
| 20260504033701 | 10 | 34 | 0.0 | 0.0 | 0.00 | 0.28 | 0.28 | 77 | 1007.0 |
| 20260504033601 | 10 | 34 | 0.0 | 0.0 | 0.00 | 0.28 | 0.28 | 77 | 1007.1 |
| 20260504033401 | 11 | 33 | 0.0 | 0.0 | 0.00 | 0.28 | 0.28 | 76 | 1007.1 |
| 20260504033301 | 11 | 33 | 0.0 | 0.0 | 0.00 | 0.28 | 0.28 | 77 | 1007.0 |
| 20260504033200 | 11 | 34 | 0.0 | 0.0 | 0.00 | 0.28 | 0.28 | 77 | 1007.1 |
| 20260504033101 | 11 | 34 | 0.0 | 0.0 | 0.00 | 0.28 | 0.28 | 77 | 1007.2 |
| 20260504033002 | 11 | 34 | 0.0 | 0.0 | 0.00 | 0.28 | 0.28 | 76 | 1007.2 |
| 20260504032801 | 11 | 34 | 0.0 | 0.0 | 0.00 | 0.28 | 0.28 | 76 | 1007.2 |
| 20260504032701 | 11 | 34 | 0.0 | 0.0 | 0.00 | 0.28 | 0.28 | 75 | 1007.1 |
| 20260504032601 | 11 | 34 | 0.0 | 0.0 | 0.00 | 0.28 | 0.28 | 75 | 1007.1 |
| 20260504032501 | 11 | 34 | 0.0 | 0.0 | 0.00 | 0.28 | 0.28 | 75 | 1007.2 |
| 20260504032401 | 11 | 34 | 0.0 | 0.0 | 0.00 | 0.28 | 0.28 | 75 | 1007.2 |
| 20260504032303 | 11 | 34 | 0.0 | 0.0 | 0.00 | 0.28 | 0.28 | 75 | 1007.3 |
| 20260504032201 | 11 | 34 | 0.0 | 0.0 | 0.00 | 0.28 | 0.28 | 75 | 1007.2 |
| 20260504032102 | 11 | 34 | 0.0 | 0.0 | 0.00 | 0.28 | 0.28 | 74 | 1007.2 |
| 20260504032001 | 11 | 34 | 0.0 | 0.0 | 0.00 | 0.28 | 0.28 | 74 | 1007.3 |
| 20260504031903 | 11 | 34 | 0.0 | 0.0 | 0.00 | 0.28 | 0.28 | 74 | 1007.3 |
| 20260504031803 | 11 | 34 | 0.0 | 0.0 | 0.00 | 0.28 | 0.28 | 74 | 1007.2 |
| 20260504031701 | 11 | 34 | 0.0 | 0.0 | 0.00 | 0.28 | 0.28 | 74 | 1007.3 |
| 20260504031601 | 11 | 34 | 0.0 | 0.0 | 0.00 | 0.28 | 0.28 | 73 | 1007.3 |
| 20260504031502 | 11 | 34 | 0.0 | 0.0 | 0.00 | 0.28 | 0.28 | 73 | 1007.3 |
| 20260504031402 | 11 | 33 | 0.0 | 0.0 | 0.00 | 0.28 | 0.28 | 73 | 1007.3 |
| 20260504031302 | 11 | 34 | 0.0 | 0.0 | 0.00 | 0.28 | 0.28 | 73 | 1007.3 |
| 20260504031102 | 12 | 34 | 0.0 | 0.0 | 0.00 | 0.28 | 0.28 | 71 | 1007.3 |
| 20260504031001 | 12 | 34 | 0.0 | 0.0 | 0.00 | 0.28 | 0.28 | 71 | 1007.2 |
| 20260504030901 | 12 | 34 | 0.0 | 0.0 | 0.00 | 0.28 | 0.28 | 70 | 1007.3 |
| 20260504030801 | 12 | 34 | 0.0 | 0.0 | 0.00 | 0.28 | 0.28 | 70 | 1007.3 |
| 20260504030701 | 12 | 34 | 0.0 | 0.0 | 0.00 | 0.28 | 0.28 | 70 | 1007.3 |
| 20260504030501 | 12 | 34 | 0.0 | 0.0 | 0.00 | 0.28 | 0.28 | 69 | 1007.3 |
| 20260504030401 | 12 | 33 | 0.0 | 0.0 | 0.00 | 0.28 | 0.28 | 68 | 1007.2 |
| 20260504030301 | 12 | 34 | 0.0 | 0.0 | 0.00 | 0.28 | 0.28 | 68 | 1007.2 |
| 20260504030202 | 13 | 34 | 0.0 | 1.6 | 0.00 | 0.28 | 0.28 | 68 | 1007.3 |
| 20260504025901 | 13 | 34 | 0.0 | 1.6 | 0.00 | 0.28 | 0.28 | 68 | 1007.3 |
| 20260504025801 | 13 | 34 | 0.0 | 1.6 | 0.00 | 0.28 | 0.28 | 68 | 1007.3 |
| 20260504025701 | 13 | 34 | 0.0 | 1.6 | 0.00 | 0.28 | 0.28 | 68 | 1007.3 |
| 20260504025503 | 13 | 34 | 0.0 | 1.6 | 0.00 | 0.28 | 0.28 | 67 | 1007.4 |
| 20260504025401 | 13 | 34 | 0.0 | 1.6 | 0.00 | 0.28 | 0.28 | 67 | 1007.3 |
| 20260504025304 | 13 | 33 | 0.0 | 1.6 | 0.00 | 0.28 | 0.28 | 67 | 1007.3 |
| 20260504025201 | 13 | 34 | 0.0 | 0.0 | 0.00 | 0.28 | 0.28 | 66 | 1007.3 |
| 20260504025101 | 13 | 34 | 0.0 | 0.0 | 0.00 | 0.28 | 0.28 | 66 | 1007.3 |
| 20260504024803 | 13 | 34 | 0.0 | 1.6 | 0.00 | 0.28 | 0.28 | 66 | 1007.3 |
| 20260504024502 | 13 | 34 | 0.0 | 1.6 | 0.00 | 0.28 | 0.28 | 66 | 1007.3 |
| 20260504024401 | 13 | 34 | 0.0 | 1.6 | 0.00 | 0.28 | 0.28 | 66 | 1007.3 |
| 20260504024301 | 13 | 34 | 0.0 | 1.6 | 0.00 | 0.28 | 0.28 | 65 | 1007.3 |
| 20260504024201 | 13 | 30 | 0.0 | 1.6 | 0.00 | 0.28 | 0.28 | 65 | 1007.3 |
| 20260504024101 | 14 | 30 | 0.0 | 1.6 | 0.00 | 0.28 | 0.28 | 65 | 1007.2 |
| 20260504023902 | 14 | 30 | 0.0 | 3.2 | 0.00 | 0.28 | 0.28 | 65 | 1007.3 |
| 20260504023601 | 14 | 28 | 0.0 | 3.2 | 0.00 | 0.28 | 0.28 | 65 | 1007.3 |
| 20260504023501 | 14 | 29 | 0.0 | 3.2 | 0.00 | 0.28 | 0.28 | 65 | 1007.3 |
| 20260504023402 | 14 | 313 | 0.0 | 3.2 | 0.00 | 0.28 | 0.28 | 64 | 1007.3 |
| 20260504023301 | 14 | 313 | 0.0 | 3.2 | 0.00 | 0.28 | 0.28 | 65 | 1007.3 |
| 20260504023201 | 14 | 51 | 1.6 | 3.2 | 0.00 | 0.28 | 0.28 | 65 | 1007.2 |
| 20260504023101 | 14 | 51 | 0.0 | 3.2 | 0.00 | 0.28 | 0.28 | 64 | 1007.2 |
| 20260504023001 | 14 | 51 | 0.0 | 3.2 | 0.00 | 0.28 | 0.28 | 64 | 1007.3 |
| 20260504022801 | 14 | 50 | 0.0 | 3.2 | 0.00 | 0.28 | 0.28 | 64 | 1007.2 |
| 20260504022601 | 14 | 73 | 1.6 | 3.2 | 0.00 | 0.28 | 0.28 | 64 | 1007.3 |
| 20260504022501 | 14 | 77 | 0.0 | 3.2 | 0.00 | 0.28 | 0.28 | 64 | 1007.3 |
| 20260504022403 | 14 | 77 | 0.0 | 3.2 | 0.00 | 0.28 | 0.28 | 64 | 1007.3 |
| 20260504022304 | 14 | 62 | 3.2 | 3.2 | 0.00 | 0.28 | 0.28 | 64 | 1007.3 |
| 20260504022101 | 14 | 327 | 0.0 | 3.2 | 0.00 | 0.28 | 0.28 | 64 | 1007.3 |
| 20260504022001 | 14 | 318 | 0.0 | 3.2 | 0.00 | 0.28 | 0.28 | 64 | 1007.3 |
| 20260504021901 | 14 | 318 | 0.0 | 3.2 | 0.00 | 0.28 | 0.28 | 64 | 1007.3 |
| 20260504021801 | 14 | 51 | 0.0 | 3.2 | 0.00 | 0.28 | 0.28 | 64 | 1007.2 |
| 20260504021701 | 14 | 96 | 0.0 | 3.2 | 0.00 | 0.28 | 0.28 | 64 | 1007.2 |
| 20260504021601 | 14 | 96 | 0.0 | 3.2 | 0.00 | 0.28 | 0.28 | 64 | 1007.3 |
| 20260504021402 | 14 | 50 | 1.6 | 3.2 | 0.00 | 0.28 | 0.28 | 64 | 1007.1 |
| 20260504021301 | 14 | 50 | 0.0 | 3.2 | 0.00 | 0.28 | 0.28 | 64 | 1007.2 |
| 20260504021201 | 14 | 50 | 0.0 | 3.2 | 0.00 | 0.28 | 0.28 | 64 | 1007.1 |
| 20260504021102 | 14 | 50 | 0.0 | 3.2 | 0.00 | 0.28 | 0.28 | 64 | 1007.1 |
| 20260504021002 | 14 | 16 | 0.0 | 3.2 | 0.00 | 0.28 | 0.28 | 64 | 1007.1 |
| 20260504020901 | 14 | 16 | 1.6 | 3.2 | 0.00 | 0.28 | 0.28 | 64 | 1007.1 |
| 20260504020803 | 14 | 315 | 0.0 | 3.2 | 0.00 | 0.28 | 0.28 | 64 | 1007.1 |
| 20260504020701 | 14 | 314 | 0.0 | 3.2 | 0.00 | 0.28 | 0.28 | 65 | 1007.1 |
| 20260504020603 | 14 | 199 | 1.6 | 3.2 | 0.00 | 0.28 | 0.28 | 65 | 1007.1 |
| 20260504020503 | 14 | 311 | 0.0 | 3.2 | 0.00 | 0.28 | 0.28 | 65 | 1007.1 |
| 20260504020400 | 14 | 253 | 0.0 | 3.2 | 0.00 | 0.28 | 0.28 | 65 | 1007.0 |
| 20260504020301 | 14 | 248 | 1.6 | 3.2 | 0.00 | 0.28 | 0.28 | 65 | 1007.1 |
| 20260504020202 | 14 | 324 | 1.6 | 1.6 | 0.00 | 0.28 | 0.28 | 65 | 1007.0 |
| 20260504020004 | 14 | 28 | 0.0 | 1.6 | 0.00 | 0.28 | 0.28 | 65 | 1007.0 |
| 20260504015901 | 14 | 28 | 1.6 | 1.6 | 0.00 | 0.28 | 0.28 | 65 | 1007.0 |
| 20260504015803 | 14 | 28 | 0.0 | 1.6 | 0.00 | 0.28 | 0.28 | 65 | 1007.0 |
| 20260504015701 | 14 | 28 | 0.0 | 1.6 | 0.00 | 0.28 | 0.28 | 65 | 1006.9 |
| 20260504015501 | 14 | 28 | 0.0 | 4.8 | 0.00 | 0.28 | 0.28 | 65 | 1007.0 |
| 20260504015401 | 14 | 29 | 0.0 | 4.8 | 0.00 | 0.28 | 0.28 | 65 | 1006.9 |
| 20260504015301 | 14 | 26 | 0.0 | 4.8 | 0.00 | 0.28 | 0.28 | 65 | 1006.9 |
| 20260504015201 | 14 | 26 | 0.0 | 4.8 | 0.00 | 0.28 | 0.28 | 65 | 1006.9 |
| 20260504015102 | 14 | 26 | 0.0 | 4.8 | 0.00 | 0.28 | 0.28 | 65 | 1006.9 |
| 20260504015001 | 14 | 30 | 0.0 | 4.8 | 0.00 | 0.28 | 0.28 | 65 | 1006.9 |
| 20260504014903 | 14 | 32 | 0.0 | 4.8 | 0.00 | 0.28 | 0.28 | 65 | 1006.9 |
| 20260504014801 | 14 | 32 | 0.0 | 4.8 | 0.00 | 0.28 | 0.28 | 65 | 1006.9 |
| 20260504014701 | 14 | 356 | 1.6 | 3.2 | 0.00 | 0.28 | 0.28 | 66 | 1007.0 |
| 20260504014602 | 14 | 326 | 3.2 | 3.2 | 0.00 | 0.28 | 0.28 | 65 | 1006.9 |
| 20260504014502 | 14 | 299 | 0.0 | 6.4 | 0.00 | 0.28 | 0.28 | 65 | 1006.9 |
| 20260504014401 | 14 | 356 | 0.0 | 6.4 | 0.00 | 0.28 | 0.28 | 65 | 1006.9 |
| 20260504014301 | 14 | 357 | 0.0 | 6.4 | 0.00 | 0.28 | 0.28 | 65 | 1007.0 |
| 20260504014201 | 14 | 357 | 0.0 | 6.4 | 0.00 | 0.28 | 0.28 | 65 | 1006.9 |
| 20260504014000 | 14 | 285 | 0.0 | 6.4 | 0.00 | 0.28 | 0.28 | 64 | 1006.9 |
| 20260504013901 | 14 | 285 | 0.0 | 6.4 | 0.00 | 0.28 | 0.28 | 64 | 1006.9 |
| 20260504013802 | 14 | 285 | 0.0 | 6.4 | 0.00 | 0.28 | 0.28 | 64 | 1006.9 |
| 20260504013700 | 14 | 285 | 0.0 | 6.4 | 0.00 | 0.28 | 0.28 | 64 | 1006.9 |
| 20260504013601 | 14 | 276 | 0.0 | 1.6 | 0.00 | 0.28 | 0.28 | 64 | 1007.0 |
| 20260504013502 | 15 | 20 | 0.0 | 1.6 | 0.00 | 0.28 | 0.28 | 64 | 1006.9 |
| 20260504013401 | 15 | 20 | 0.0 | 1.6 | 0.00 | 0.28 | 0.28 | 64 | 1006.9 |
| 20260504013301 | 15 | 20 | 0.0 | 1.6 | 0.00 | 0.28 | 0.28 | 64 | 1006.9 |
| 20260504013200 | 15 | 1 | 0.0 | 1.6 | 0.00 | 0.28 | 0.28 | 64 | 1006.9 |
| 20260504012901 | 15 | 1 | 0.0 | 1.6 | 0.00 | 0.28 | 0.28 | 63 | 1006.9 |
| 20260504012801 | 15 | 340 | 0.0 | 1.6 | 0.00 | 0.28 | 0.28 | 63 | 1006.9 |
| 20260504012702 | 15 | 340 | 0.0 | 1.6 | 0.00 | 0.28 | 0.28 | 63 | 1006.8 |
| 20260504012501 | 15 | 340 | 0.0 | 1.6 | 0.00 | 0.28 | 0.28 | 63 | 1006.8 |
| 20260504012400 | 15 | 340 | 0.0 | 1.6 | 0.00 | 0.28 | 0.28 | 63 | 1006.8 |
| 20260504012202 | 15 | 340 | 0.0 | 1.6 | 0.00 | 0.28 | 0.28 | 63 | 1006.8 |
| 20260504012103 | 15 | 340 | 0.0 | 1.6 | 0.00 | 0.28 | 0.28 | 63 | 1006.8 |
| 20260504012001 | 15 | 335 | 0.0 | 1.6 | 0.00 | 0.28 | 0.28 | 63 | 1006.8 |
| 20260504011901 | 15 | 326 | 0.0 | 1.6 | 0.00 | 0.28 | 0.28 | 63 | 1006.8 |
| 20260504011701 | 15 | 37 | 0.0 | 1.6 | 0.00 | 0.28 | 0.28 | 63 | 1006.8 |
| 20260504011601 | 15 | 37 | 0.0 | 1.6 | 0.00 | 0.28 | 0.28 | 63 | 1006.8 |
| 20260504011501 | 15 | 38 | 0.0 | 0.0 | 0.00 | 0.28 | 0.28 | 63 | 1006.9 |
| 20260504011401 | 15 | 38 | 0.0 | 0.0 | 0.00 | 0.28 | 0.28 | 62 | 1006.8 |
| 20260504011202 | 15 | 38 | 0.0 | 0.0 | 0.00 | 0.28 | 0.28 | 62 | 1006.8 |
| 20260504011101 | 15 | 56 | 0.0 | 0.0 | 0.00 | 0.28 | 0.28 | 62 | 1006.9 |
| 20260504011002 | 15 | 56 | 0.0 | 1.6 | 0.00 | 0.28 | 0.28 | 62 | 1006.8 |
| 20260504010901 | 15 | 56 | 0.0 | 1.6 | 0.00 | 0.28 | 0.28 | 61 | 1006.8 |
| 20260504010801 | 15 | 56 | 0.0 | 1.6 | 0.00 | 0.28 | 0.28 | 61 | 1006.9 |
| 20260504010701 | 15 | 56 | 0.0 | 1.6 | 0.00 | 0.28 | 0.28 | 61 | 1006.8 |
| 20260504010601 | 16 | 56 | 0.0 | 1.6 | 0.00 | 0.28 | 0.28 | 61 | 1006.8 |
| 20260504010502 | 16 | 56 | 0.0 | 1.6 | 0.00 | 0.28 | 0.28 | 61 | 1006.8 |
| 20260504010401 | 16 | 46 | 0.0 | 1.6 | 0.00 | 0.28 | 0.28 | 61 | 1006.8 |
| 20260504010301 | 16 | 46 | 0.0 | 1.6 | 0.00 | 0.28 | 0.28 | 60 | 1006.8 |
| 20260504010201 | 16 | 46 | 0.0 | 1.6 | 0.00 | 0.28 | 0.28 | 60 | 1006.8 |
| 20260504010101 | 16 | 46 | 0.0 | 1.6 | 0.00 | 0.28 | 0.28 | 60 | 1006.8 |
| 20260504010001 | 16 | 291 | 1.6 | 1.6 | 0.00 | 0.28 | 0.28 | 60 | 1006.8 |
| 20260504005902 | 16 | 290 | 0.0 | 1.6 | 0.00 | 0.28 | 0.28 | 60 | 1006.7 |
| 20260504005802 | 16 | 279 | 0.0 | 1.6 | 0.00 | 0.28 | 0.28 | 60 | 1006.8 |
| 20260504005701 | 16 | 311 | 0.0 | 1.6 | 0.00 | 0.28 | 0.28 | 60 | 1006.7 |
| 20260504005601 | 16 | 311 | 0.0 | 1.6 | 0.00 | 0.28 | 0.28 | 60 | 1006.7 |
| 20260504005503 | 16 | 335 | 0.0 | 4.8 | 0.00 | 0.28 | 0.28 | 59 | 1006.7 |
| 20260504005301 | 16 | 70 | 1.6 | 4.8 | 0.00 | 0.28 | 0.28 | 59 | 1006.7 |
| 20260504005202 | 16 | 70 | 0.0 | 4.8 | 0.00 | 0.28 | 0.28 | 59 | 1006.8 |
| 20260504005002 | 16 | 71 | 0.0 | 4.8 | 0.00 | 0.28 | 0.28 | 59 | 1006.8 |
| 20260504004901 | 16 | 356 | 0.0 | 4.8 | 0.00 | 0.28 | 0.28 | 58 | 1006.8 |
| 20260504004802 | 16 | 268 | 0.0 | 4.8 | 0.00 | 0.28 | 0.28 | 58 | 1006.8 |
| 20260504004702 | 16 | 268 | 0.0 | 4.8 | 0.00 | 0.28 | 0.28 | 58 | 1006.8 |
| 20260504004602 | 16 | 257 | 4.8 | 4.8 | 0.00 | 0.28 | 0.28 | 58 | 1006.8 |
| 20260504004303 | 16 | 350 | 1.6 | 3.2 | 0.00 | 0.28 | 0.28 | 58 | 1006.7 |
| 20260504004201 | 16 | 44 | 1.6 | 3.2 | 0.00 | 0.28 | 0.28 | 57 | 1006.7 |
| 20260504004101 | 17 | 27 | 0.0 | 3.2 | 0.00 | 0.28 | 0.28 | 57 | 1006.7 |
| 20260504004001 | 17 | 89 | 0.0 | 3.2 | 0.00 | 0.28 | 0.28 | 57 | 1006.7 |
| 20260504003902 | 17 | 89 | 0.0 | 3.2 | 0.00 | 0.28 | 0.28 | 57 | 1006.7 |
| 20260504003801 | 17 | 310 | 0.0 | 3.2 | 0.00 | 0.28 | 0.28 | 57 | 1006.7 |
| 20260504003701 | 17 | 51 | 0.0 | 4.8 | 0.00 | 0.28 | 0.28 | 56 | 1006.8 |
| 20260504003601 | 17 | 52 | 0.0 | 4.8 | 0.00 | 0.28 | 0.28 | 56 | 1006.8 |
| 20260504003501 | 17 | 69 | 0.0 | 4.8 | 0.00 | 0.28 | 0.28 | 56 | 1006.8 |
| 20260504003401 | 17 | 68 | 1.6 | 4.8 | 0.00 | 0.28 | 0.28 | 56 | 1006.7 |
| 20260504003302 | 17 | 134 | 1.6 | 4.8 | 0.00 | 0.28 | 0.28 | 56 | 1006.7 |
| 20260504003201 | 17 | 313 | 0.0 | 4.8 | 0.00 | 0.28 | 0.28 | 56 | 1006.7 |
| 20260504003101 | 17 | 312 | 0.0 | 4.8 | 0.00 | 0.28 | 0.28 | 55 | 1006.7 |
| 20260504002902 | 17 | 314 | 1.6 | 4.8 | 0.00 | 0.28 | 0.28 | 55 | 1006.7 |
| 20260504002801 | 17 | 354 | 0.0 | 3.2 | 0.00 | 0.28 | 0.28 | 55 | 1006.7 |
| 20260504002701 | 17 | 279 | 1.6 | 3.2 | 0.00 | 0.28 | 0.28 | 55 | 1006.7 |
| 20260504002602 | 17 | 41 | 1.6 | 1.6 | 0.00 | 0.28 | 0.28 | 55 | 1006.6 |
| 20260504002502 | 17 | 46 | 0.0 | 1.6 | 0.00 | 0.28 | 0.28 | 55 | 1006.7 |
| 20260504002402 | 17 | 46 | 0.0 | 1.6 | 0.00 | 0.28 | 0.28 | 55 | 1006.6 |
| 20260504002304 | 17 | 46 | 0.0 | 1.6 | 0.00 | 0.28 | 0.28 | 54 | 1006.7 |
| 20260504002201 | 17 | 46 | 0.0 | 1.6 | 0.00 | 0.28 | 0.28 | 54 | 1006.7 |
| 20260504002101 | 17 | 46 | 0.0 | 1.6 | 0.00 | 0.28 | 0.28 | 53 | 1006.6 |
| 20260504002001 | 17 | 82 | 0.0 | 3.2 | 0.00 | 0.28 | 0.28 | 54 | 1006.6 |
| 20260504001901 | 18 | 82 | 0.0 | 3.2 | 0.00 | 0.28 | 0.28 | 54 | 1006.7 |
| 20260504001800 | 18 | 82 | 0.0 | 3.2 | 0.00 | 0.28 | 0.28 | 53 | 1006.7 |
| 20260504001705 | 18 | 82 | 0.0 | 3.2 | 0.00 | 0.28 | 0.28 | 53 | 1006.7 |
| 20260504001602 | 18 | 330 | 0.0 | 3.2 | 0.00 | 0.28 | 0.28 | 53 | 1006.7 |
| 20260504001502 | 18 | 329 | 0.0 | 3.2 | 0.00 | 0.28 | 0.28 | 53 | 1006.6 |
| 20260504001402 | 18 | 324 | 0.0 | 3.2 | 0.00 | 0.28 | 0.28 | 53 | 1006.7 |
| 20260504001301 | 18 | 324 | 0.0 | 4.8 | 0.00 | 0.28 | 0.28 | 53 | 1006.7 |
| 20260504001202 | 18 | 324 | 1.6 | 4.8 | 0.00 | 0.28 | 0.28 | 52 | 1006.7 |
| 20260504001101 | 18 | 332 | 0.0 | 4.8 | 0.00 | 0.28 | 0.28 | 53 | 1006.7 |
| 20260504001002 | 18 | 16 | 0.0 | 4.8 | 0.00 | 0.28 | 0.28 | 52 | 1006.7 |
| 20260504000901 | 18 | 307 | 0.0 | 6.4 | 0.00 | 0.28 | 0.28 | 51 | 1006.8 |
| 20260504000802 | 18 | 306 | 0.0 | 6.4 | 0.00 | 0.28 | 0.28 | 51 | 1006.8 |
| 20260504000702 | 18 | 314 | 0.0 | 6.4 | 0.00 | 0.28 | 0.28 | 51 | 1006.8 |
| 20260504000601 | 18 | 290 | 1.6 | 6.4 | 0.00 | 0.28 | 0.28 | 52 | 1006.8 |
| 20260504000501 | 18 | 310 | 1.6 | 6.4 | 0.00 | 0.28 | 0.28 | 50 | 1006.8 |
| 20260504000401 | 18 | 308 | 0.0 | 6.4 | 0.00 | 0.28 | 0.28 | 51 | 1006.7 |
| 20260504000301 | 18 | 68 | 1.6 | 6.4 | 0.00 | 0.28 | 0.28 | 51 | 1006.7 |
| 20260504000201 | 18 | 358 | 1.6 | 6.4 | 0.00 | 0.28 | 0.28 | 50 | 1006.7 |
| 20260504000101 | 18 | 358 | 1.6 | 8.0 | 0.00 | 0.28 | 0.28 | 50 | 1006.7 |
| 20260503235903 | 18 | 323 | 3.2 | 11.3 | 0.00 | 0.28 | 0.28 | 50 | 1006.7 |
| 20260503235801 | 18 | 328 | 1.6 | 11.3 | 0.00 | 0.28 | 0.28 | 50 | 1006.7 |
| 20260503235700 | 19 | 305 | 1.6 | 11.3 | 0.00 | 0.28 | 0.28 | 50 | 1006.6 |
| 20260503235501 | 19 | 303 | 1.6 | 11.3 | 0.00 | 0.28 | 0.28 | 50 | 1006.6 |
| 20260503235301 | 19 | 306 | 0.0 | 11.3 | 0.00 | 0.28 | 0.28 | 49 | 1006.6 |
| 20260503235201 | 19 | 277 | 4.8 | 11.3 | 0.00 | 0.28 | 0.28 | 49 | 1006.6 |
| 20260503235101 | 19 | 306 | 1.6 | 8.0 | 0.00 | 0.28 | 0.28 | 49 | 1006.6 |
| 20260503234901 | 19 | 311 | 3.2 | 9.7 | 0.00 | 0.28 | 0.28 | 49 | 1006.6 |
| 20260503234801 | 19 | 257 | 3.2 | 9.7 | 0.00 | 0.28 | 0.28 | 49 | 1006.6 |
| 20260503234601 | 19 | 268 | 3.2 | 9.7 | 0.00 | 0.28 | 0.28 | 48 | 1006.6 |
| 20260503234501 | 19 | 307 | 1.6 | 9.7 | 0.00 | 0.28 | 0.28 | 48 | 1006.6 |
| 20260503234301 | 19 | 303 | 4.8 | 9.7 | 0.00 | 0.28 | 0.28 | 48 | 1006.6 |
| 20260503234201 | 19 | 326 | 4.8 | 9.7 | 0.00 | 0.28 | 0.28 | 48 | 1006.7 |
| 20260503234101 | 19 | 35 | 4.8 | 8.0 | 0.00 | 0.28 | 0.28 | 48 | 1006.7 |
| 20260503234001 | 19 | 11 | 0.0 | 8.0 | 0.00 | 0.28 | 0.28 | 48 | 1006.6 |
| 20260503233901 | 20 | 23 | 4.8 | 8.0 | 0.00 | 0.28 | 0.28 | 48 | 1006.7 |
| 20260503233801 | 19 | 302 | 3.2 | 8.0 | 0.00 | 0.28 | 0.28 | 48 | 1006.6 |
| 20260503233701 | 20 | 302 | 3.2 | 6.4 | 0.00 | 0.28 | 0.28 | 49 | 1006.7 |
| 20260503233602 | 20 | 266 | 3.2 | 6.4 | 0.00 | 0.28 | 0.28 | 49 | 1006.7 |
| 20260503233502 | 20 | 267 | 3.2 | 6.4 | 0.00 | 0.28 | 0.28 | 48 | 1006.7 |
| 20260503233401 | 20 | 314 | 1.6 | 4.8 | 0.00 | 0.28 | 0.28 | 49 | 1006.7 |
| 20260503233102 | 20 | 314 | 3.2 | 6.4 | 0.00 | 0.28 | 0.28 | 49 | 1006.8 |
| 20260503233004 | 20 | 327 | 1.6 | 6.4 | 0.00 | 0.28 | 0.28 | 49 | 1006.8 |
| 20260503232901 | 20 | 298 | 0.0 | 6.4 | 0.00 | 0.28 | 0.28 | 48 | 1006.8 |
| 20260503232801 | 20 | 302 | 1.6 | 8.0 | 0.00 | 0.28 | 0.28 | 48 | 1006.7 |
| 20260503232701 | 20 | 354 | 1.6 | 14.5 | 0.00 | 0.28 | 0.28 | 48 | 1006.8 |
| 20260503232602 | 20 | 310 | 0.0 | 14.5 | 0.00 | 0.28 | 0.28 | 47 | 1006.8 |
| 20260503232501 | 20 | 285 | 0.0 | 14.5 | 0.00 | 0.28 | 0.28 | 47 | 1006.8 |
| 20260503232401 | 20 | 298 | 1.6 | 14.5 | 0.00 | 0.28 | 0.28 | 46 | 1006.7 |
| 20260503232305 | 20 | 23 | 6.4 | 14.5 | 0.00 | 0.28 | 0.28 | 46 | 1006.7 |
| 20260503232201 | 20 | 304 | 3.2 | 14.5 | 0.00 | 0.28 | 0.28 | 46 | 1006.7 |
| 20260503232101 | 20 | 274 | 6.4 | 14.5 | 0.00 | 0.28 | 0.28 | 45 | 1006.7 |
| 20260503232003 | 20 | 165 | 3.2 | 14.5 | 0.00 | 0.28 | 0.28 | 45 | 1006.7 |
| 20260503231902 | 20 | 311 | 8.0 | 9.7 | 0.00 | 0.28 | 0.28 | 45 | 1006.7 |
| 20260503231801 | 20 | 342 | 1.6 | 9.7 | 0.00 | 0.28 | 0.28 | 46 | 1006.7 |
| 20260503231702 | 20 | 302 | 3.2 | 9.7 | 0.00 | 0.28 | 0.28 | 46 | 1006.7 |
| 20260503231602 | 20 | 42 | 6.4 | 9.7 | 0.00 | 0.28 | 0.28 | 45 | 1006.7 |
| 20260503231501 | 20 | 297 | 3.2 | 9.7 | 0.00 | 0.28 | 0.28 | 45 | 1006.8 |
| 20260503231401 | 20 | 281 | 1.6 | 9.7 | 0.00 | 0.28 | 0.28 | 45 | 1006.8 |
| 20260503231302 | 20 | 317 | 1.6 | 9.7 | 0.00 | 0.28 | 0.28 | 46 | 1006.7 |
| 20260503231202 | 20 | 1 | 3.2 | 9.7 | 0.00 | 0.28 | 0.28 | 45 | 1006.8 |
| 20260503231101 | 20 | 297 | 3.2 | 9.7 | 0.00 | 0.28 | 0.28 | 45 | 1006.8 |
| 20260503231001 | 20 | 310 | 1.6 | 9.7 | 0.00 | 0.28 | 0.28 | 46 | 1006.9 |
| 20260503230903 | 20 | 307 | 3.2 | 9.7 | 0.00 | 0.28 | 0.28 | 45 | 1006.8 |
| 20260503230602 | 20 | 308 | 1.6 | 9.7 | 0.00 | 0.28 | 0.28 | 46 | 1006.8 |
| 20260503230503 | 20 | 321 | 1.6 | 9.7 | 0.00 | 0.28 | 0.28 | 47 | 1006.8 |
| 20260503230402 | 20 | 307 | 3.2 | 9.7 | 0.00 | 0.28 | 0.28 | 46 | 1006.9 |
| 20260503230301 | 20 | 304 | 4.8 | 9.7 | 0.00 | 0.28 | 0.28 | 46 | 1006.8 |
| 20260503230200 | 20 | 321 | 1.6 | 11.3 | 0.00 | 0.28 | 0.28 | 46 | 1006.8 |
| 20260503230001 | 20 | 313 | 3.2 | 11.3 | 0.00 | 0.28 | 0.28 | 45 | 1006.9 |
| 20260503225901 | 20 | 323 | 6.4 | 11.3 | 0.00 | 0.28 | 0.28 | 45 | 1006.9 |
| 20260503225801 | 20 | 311 | 6.4 | 12.9 | 0.00 | 0.28 | 0.28 | 44 | 1006.9 |
| 20260503225702 | 20 | 192 | 1.6 | 12.9 | 0.00 | 0.28 | 0.28 | 44 | 1006.9 |
| 20260503225601 | 20 | 251 | 4.8 | 12.9 | 0.00 | 0.28 | 0.28 | 44 | 1006.9 |
| 20260503225501 | 20 | 304 | 1.6 | 12.9 | 0.00 | 0.28 | 0.28 | 44 | 1006.9 |
| 20260503225402 | 20 | 308 | 4.8 | 12.9 | 0.00 | 0.28 | 0.28 | 43 | 1006.9 |
| 20260503225304 | 21 | 283 | 4.8 | 12.9 | 0.00 | 0.28 | 0.28 | 43 | 1006.9 |
| 20260503225201 | 21 | 301 | 6.4 | 12.9 | 0.00 | 0.28 | 0.28 | 44 | 1007.0 |
| 20260503225102 | 21 | 328 | 4.8 | 14.5 | 0.00 | 0.28 | 0.28 | 44 | 1007.0 |
| 20260503225001 | 21 | 307 | 4.8 | 14.5 | 0.00 | 0.28 | 0.28 | 43 | 1006.9 |
| 20260503224701 | 21 | 250 | 4.8 | 14.5 | 0.00 | 0.28 | 0.28 | 45 | 1007.0 |
| 20260503224601 | 21 | 37 | 3.2 | 14.5 | 0.00 | 0.28 | 0.28 | 45 | 1007.0 |
| 20260503224302 | 21 | 302 | 4.8 | 14.5 | 0.00 | 0.28 | 0.28 | 44 | 1007.1 |
| 20260503224203 | 21 | 286 | 6.4 | 12.9 | 0.00 | 0.28 | 0.28 | 43 | 1007.0 |
| 20260503224101 | 21 | 291 | 8.0 | 12.9 | 0.00 | 0.28 | 0.28 | 44 | 1007.1 |
| 20260503223801 | 21 | 274 | 4.8 | 12.9 | 0.00 | 0.28 | 0.28 | 43 | 1007.1 |
| 20260503223701 | 21 | 262 | 12.9 | 12.9 | 0.00 | 0.28 | 0.28 | 46 | 1007.2 |
| 20260503223601 | 21 | 279 | 3.2 | 11.3 | 0.00 | 0.28 | 0.28 | 47 | 1007.0 |
| 20260503223500 | 21 | 288 | 3.2 | 11.3 | 0.00 | 0.28 | 0.28 | 45 | 1007.0 |
| 20260503223403 | 21 | 303 | 1.6 | 11.3 | 0.00 | 0.28 | 0.28 | 45 | 1007.2 |
| 20260503223301 | 21 | 301 | 3.2 | 11.3 | 0.00 | 0.28 | 0.28 | 45 | 1007.1 |
| 20260503223202 | 21 | 262 | 6.4 | 11.3 | 0.00 | 0.28 | 0.28 | 45 | 1007.2 |
| 20260503223101 | 21 | 320 | 8.0 | 11.3 | 0.00 | 0.28 | 0.28 | 45 | 1007.2 |
| 20260503223000 | 21 | 334 | 4.8 | 11.3 | 0.00 | 0.28 | 0.28 | 44 | 1007.2 |
| 20260503222901 | 21 | 307 | 11.3 | 11.3 | 0.00 | 0.28 | 0.28 | 45 | 1007.2 |
| 20260503222801 | 21 | 300 | 1.6 | 11.3 | 0.00 | 0.28 | 0.28 | 45 | 1007.2 |
| 20260503222702 | 21 | 302 | 4.8 | 11.3 | 0.00 | 0.28 | 0.28 | 45 | 1007.2 |
| 20260503222602 | 21 | 253 | 3.2 | 11.3 | 0.00 | 0.28 | 0.28 | 45 | 1007.3 |
| 20260503222503 | 21 | 313 | 3.2 | 11.3 | 0.00 | 0.28 | 0.28 | 45 | 1007.2 |
| 20260503222401 | 21 | 257 | 3.2 | 11.3 | 0.00 | 0.28 | 0.28 | 44 | 1007.2 |
| 20260503222304 | 21 | 306 | 4.8 | 11.3 | 0.00 | 0.28 | 0.28 | 46 | 1007.2 |
| 20260503222201 | 21 | 262 | 3.2 | 11.3 | 0.00 | 0.28 | 0.28 | 46 | 1007.2 |
| 20260503222103 | 21 | 324 | 1.6 | 11.3 | 0.00 | 0.28 | 0.28 | 47 | 1007.3 |
| 20260503222004 | 21 | 307 | 3.2 | 11.3 | 0.00 | 0.28 | 0.28 | 47 | 1007.2 |
| 20260503221702 | 21 | 304 | 6.4 | 11.3 | 0.00 | 0.28 | 0.28 | 45 | 1007.2 |
| 20260503221501 | 20 | 45 | 1.6 | 11.3 | 0.00 | 0.28 | 0.28 | 46 | 1007.2 |
| 20260503221401 | 20 | 314 | 4.8 | 14.5 | 0.00 | 0.28 | 0.28 | 46 | 1007.2 |
| 20260503221301 | 20 | 345 | 6.4 | 14.5 | 0.00 | 0.28 | 0.28 | 46 | 1007.2 |
| 20260503221201 | 20 | 311 | 1.6 | 14.5 | 0.00 | 0.28 | 0.28 | 48 | 1007.3 |
| 20260503221001 | 20 | 47 | 8.0 | 14.5 | 0.00 | 0.28 | 0.28 | 48 | 1007.3 |
| 20260503220801 | 20 | 319 | 1.6 | 14.5 | 0.00 | 0.28 | 0.28 | 47 | 1007.2 |
| 20260503220701 | 20 | 319 | 3.2 | 14.5 | 0.00 | 0.28 | 0.28 | 46 | 1007.3 |
| 20260503220601 | 20 | 203 | 6.4 | 14.5 | 0.00 | 0.28 | 0.28 | 46 | 1007.3 |
| 20260503220501 | 20 | 338 | 4.8 | 9.7 | 0.00 | 0.28 | 0.28 | 46 | 1007.3 |
| 20260503220401 | 20 | 342 | 6.4 | 9.7 | 0.00 | 0.28 | 0.28 | 46 | 1007.3 |
| 20260503220302 | 20 | 83 | 3.2 | 9.7 | 0.00 | 0.28 | 0.28 | 46 | 1007.2 |
| 20260503220203 | 20 | 303 | 3.2 | 9.7 | 0.00 | 0.28 | 0.28 | 47 | 1007.3 |
| 20260503220000 | 20 | 75 | 1.6 | 9.7 | 0.00 | 0.28 | 0.28 | 47 | 1007.3 |
| 20260503215800 | 20 | 265 | 1.6 | 9.7 | 0.00 | 0.28 | 0.28 | 46 | 1007.3 |
| 20260503215700 | 20 | 326 | 6.4 | 8.0 | 0.00 | 0.28 | 0.28 | 46 | 1007.3 |
| 20260503215601 | 20 | 346 | 3.2 | 8.0 | 0.00 | 0.28 | 0.28 | 46 | 1007.3 |
| 20260503215500 | 20 | 306 | 3.2 | 11.3 | 0.00 | 0.28 | 0.28 | 45 | 1007.3 |
| 20260503215401 | 20 | 313 | 4.8 | 11.3 | 0.00 | 0.28 | 0.28 | 47 | 1007.3 |
| 20260503215300 | 20 | 243 | 1.6 | 11.3 | 0.00 | 0.28 | 0.28 | 48 | 1007.3 |
| 20260503215200 | 20 | 21 | 4.8 | 11.3 | 0.00 | 0.28 | 0.28 | 46 | 1007.2 |
| 20260503215100 | 20 | 316 | 3.2 | 11.3 | 0.00 | 0.28 | 0.28 | 47 | 1007.2 |
| 20260503215000 | 20 | 35 | 3.2 | 11.3 | 0.00 | 0.28 | 0.28 | 47 | 1007.3 |
| 20260503214900 | 20 | 235 | 3.2 | 11.3 | 0.00 | 0.28 | 0.28 | 47 | 1007.3 |
| 20260503214800 | 20 | 266 | 4.8 | 11.3 | 0.00 | 0.28 | 0.28 | 47 | 1007.3 |
| 20260503214600 | 20 | 82 | 3.2 | 11.3 | 0.00 | 0.28 | 0.28 | 46 | 1007.3 |
| 20260503214500 | 20 | 77 | 1.6 | 11.3 | 0.00 | 0.28 | 0.28 | 47 | 1007.4 |
| 20260503214403 | 20 | 58 | 1.6 | 11.3 | 0.00 | 0.28 | 0.28 | 46 | 1007.4 |
| 20260503214300 | 20 | 59 | 4.8 | 11.3 | 0.00 | 0.28 | 0.28 | 46 | 1007.4 |
| 20260503214100 | 20 | 4 | 3.2 | 9.7 | 0.00 | 0.28 | 0.28 | 47 | 1007.4 |
| 20260503214000 | 20 | 245 | 1.6 | 9.7 | 0.00 | 0.28 | 0.28 | 47 | 1007.4 |
| 20260503213900 | 20 | 306 | 3.2 | 9.7 | 0.00 | 0.28 | 0.28 | 47 | 1007.5 |
| 20260503213700 | 19 | 143 | 3.2 | 9.7 | 0.00 | 0.28 | 0.28 | 47 | 1007.4 |
| 20260503213600 | 19 | 103 | 3.2 | 12.9 | 0.00 | 0.28 | 0.28 | 48 | 1007.4 |
| 20260503213500 | 19 | 359 | 3.2 | 12.9 | 0.00 | 0.28 | 0.28 | 49 | 1007.4 |
| 20260503213400 | 19 | 13 | 3.2 | 12.9 | 0.00 | 0.28 | 0.28 | 47 | 1007.4 |
| 20260503213300 | 19 | 95 | 3.2 | 12.9 | 0.00 | 0.28 | 0.28 | 47 | 1007.4 |
| 20260503213202 | 19 | 335 | 0.0 | 12.9 | 0.00 | 0.28 | 0.28 | 47 | 1007.4 |
| 20260503213100 | 19 | 276 | 1.6 | 12.9 | 0.00 | 0.28 | 0.28 | 46 | 1007.4 |
| 20260503213000 | 19 | 116 | 0.0 | 12.9 | 0.00 | 0.28 | 0.28 | 45 | 1007.4 |
| 20260503212900 | 19 | 323 | 4.8 | 12.9 | 0.00 | 0.28 | 0.28 | 46 | 1007.4 |
| 20260503212800 | 19 | 281 | 6.4 | 12.9 | 0.00 | 0.28 | 0.28 | 45 | 1007.5 |
| 20260503212701 | 19 | 266 | 3.2 | 12.9 | 0.00 | 0.28 | 0.28 | 44 | 1007.5 |
| 20260503212600 | 20 | 290 | 4.8 | 12.9 | 0.00 | 0.28 | 0.28 | 45 | 1007.6 |
| 20260503212300 | 20 | 323 | 3.2 | 12.9 | 0.00 | 0.28 | 0.28 | 47 | 1007.6 |
| 20260503212200 | 20 | 351 | 4.8 | 12.9 | 0.00 | 0.28 | 0.28 | 47 | 1007.6 |
| 20260503212101 | 20 | 222 | 1.6 | 14.5 | 0.00 | 0.28 | 0.28 | 47 | 1007.5 |
| 20260503212000 | 20 | 50 | 3.2 | 14.5 | 0.00 | 0.28 | 0.28 | 48 | 1007.6 |
| 20260503211900 | 19 | 78 | 3.2 | 14.5 | 0.00 | 0.28 | 0.28 | 47 | 1007.6 |
| 20260503211800 | 19 | 27 | 8.0 | 14.5 | 0.00 | 0.28 | 0.28 | 48 | 1007.6 |
| 20260503211700 | 19 | 11 | 4.8 | 14.5 | 0.00 | 0.28 | 0.28 | 47 | 1007.7 |
| 20260503211500 | 19 | 139 | 0.0 | 14.5 | 0.00 | 0.28 | 0.28 | 47 | 1007.7 |
| 20260503211400 | 19 | 345 | 3.2 | 14.5 | 0.00 | 0.28 | 0.28 | 46 | 1007.7 |
| 20260503211300 | 19 | 46 | 6.4 | 14.5 | 0.00 | 0.28 | 0.28 | 48 | 1007.7 |
| 20260503211200 | 19 | 33 | 3.2 | 9.7 | 0.00 | 0.28 | 0.28 | 48 | 1007.8 |
| 20260503211003 | 19 | 19 | 3.2 | 9.7 | 0.00 | 0.28 | 0.28 | 48 | 1007.7 |
| 20260503210900 | 19 | 356 | 1.6 | 9.7 | 0.00 | 0.28 | 0.28 | 46 | 1007.8 |
| 20260503210700 | 19 | 167 | 1.6 | 9.7 | 0.00 | 0.28 | 0.28 | 47 | 1007.8 |
| 20260503210500 | 19 | 344 | 3.2 | 9.7 | 0.00 | 0.28 | 0.28 | 46 | 1007.8 |
| 20260503210400 | 19 | 32 | 6.4 | 9.7 | 0.00 | 0.28 | 0.28 | 49 | 1007.9 |
| 20260503210300 | 18 | 264 | 0.0 | 9.7 | 0.00 | 0.28 | 0.28 | 48 | 1007.9 |
| 20260503210200 | 18 | 285 | 3.2 | 9.7 | 0.00 | 0.28 | 0.28 | 47 | 1008.0 |
| 20260503210100 | 18 | 21 | 0.0 | 9.7 | 0.00 | 0.28 | 0.28 | 47 | 1008.0 |
| 20260503210005 | 18 | 311 | 0.0 | 9.7 | 0.00 | 0.28 | 0.28 | 46 | 1008.0 |
| 20260503205802 | 18 | 15 | 3.2 | 9.7 | 0.00 | 0.28 | 0.28 | 47 | 1008.0 |
| 20260503205701 | 19 | 4 | 1.6 | 9.7 | 0.00 | 0.28 | 0.28 | 47 | 1008.1 |
| 20260503205601 | 18 | 333 | 3.2 | 11.3 | 0.00 | 0.28 | 0.28 | 49 | 1008.0 |
| 20260503205501 | 18 | 91 | 3.2 | 11.3 | 0.00 | 0.28 | 0.28 | 49 | 1008.1 |
| 20260503205401 | 18 | 327 | 3.2 | 11.3 | 0.00 | 0.28 | 0.28 | 49 | 1008.1 |
| 20260503205303 | 18 | 50 | 4.8 | 11.3 | 0.00 | 0.28 | 0.28 | 48 | 1008.2 |
| 20260503205201 | 18 | 326 | 3.2 | 11.3 | 0.00 | 0.28 | 0.28 | 48 | 1008.2 |
| 20260503205102 | 18 | 300 | 3.2 | 11.3 | 0.00 | 0.28 | 0.28 | 48 | 1008.1 |
| 20260503204900 | 18 | 279 | 4.8 | 11.3 | 0.00 | 0.28 | 0.28 | 48 | 1008.2 |
| 20260503204803 | 18 | 116 | 3.2 | 11.3 | 0.00 | 0.28 | 0.28 | 47 | 1008.2 |
| 20260503204601 | 18 | 62 | 1.6 | 11.3 | 0.00 | 0.28 | 0.28 | 46 | 1008.3 |
| 20260503204501 | 18 | 295 | 6.4 | 11.3 | 0.00 | 0.28 | 0.28 | 46 | 1008.2 |
| 20260503204401 | 18 | 319 | 4.8 | 11.3 | 0.00 | 0.28 | 0.28 | 48 | 1008.3 |
| 20260503204202 | 18 | 299 | 3.2 | 11.3 | 0.00 | 0.28 | 0.28 | 48 | 1008.3 |
| 20260503204002 | 18 | 24 | 1.6 | 11.3 | 0.00 | 0.28 | 0.28 | 49 | 1008.4 |
| 20260503203901 | 18 | 203 | 3.2 | 11.3 | 0.00 | 0.28 | 0.28 | 49 | 1008.4 |
| 20260503203802 | 18 | 10 | 3.2 | 11.3 | 0.00 | 0.28 | 0.28 | 49 | 1008.4 |
| 20260503203702 | 18 | 113 | 3.2 | 11.3 | 0.00 | 0.28 | 0.28 | 50 | 1008.5 |
| 20260503203602 | 18 | 39 | 3.2 | 11.3 | 0.00 | 0.28 | 0.28 | 49 | 1008.6 |
| 20260503203501 | 18 | 160 | 4.8 | 11.3 | 0.00 | 0.28 | 0.28 | 48 | 1008.6 |
| 20260503203401 | 18 | 293 | 3.2 | 14.5 | 0.00 | 0.28 | 0.28 | 47 | 1008.6 |
| 20260503203301 | 18 | 37 | 3.2 | 14.5 | 0.00 | 0.28 | 0.28 | 47 | 1008.8 |
| 20260503203101 | 18 | 70 | 0.0 | 14.5 | 0.00 | 0.28 | 0.28 | 47 | 1008.8 |
| 20260503203002 | 18 | 307 | 9.7 | 14.5 | 0.00 | 0.28 | 0.28 | 47 | 1008.8 |
| 20260503202903 | 18 | 32 | 0.0 | 14.5 | 0.00 | 0.28 | 0.28 | 48 | 1008.7 |
| 20260503202601 | 18 | 202 | 6.4 | 14.5 | 0.00 | 0.28 | 0.28 | 47 | 1008.8 |
| 20260503202501 | 18 | 298 | 4.8 | 12.9 | 0.00 | 0.28 | 0.28 | 47 | 1008.8 |
| 20260503202401 | 18 | 115 | 0.0 | 12.9 | 0.00 | 0.28 | 0.28 | 46 | 1008.9 |
| 20260503202304 | 18 | 300 | 4.8 | 12.9 | 0.00 | 0.28 | 0.28 | 46 | 1008.9 |
| 20260503202101 | 18 | 294 | 3.2 | 12.9 | 0.00 | 0.28 | 0.28 | 45 | 1008.8 |
| 20260503202001 | 18 | 321 | 6.4 | 12.9 | 0.00 | 0.28 | 0.28 | 45 | 1008.9 |
| 20260503201901 | 18 | 345 | 8.0 | 12.9 | 0.00 | 0.28 | 0.28 | 47 | 1008.9 |
| 20260503201801 | 18 | 187 | 0.0 | 12.9 | 0.00 | 0.28 | 0.28 | 46 | 1009.0 |
| 20260503201701 | 18 | 277 | 3.2 | 12.9 | 0.00 | 0.28 | 0.28 | 45 | 1009.0 |
| 20260503201601 | 18 | 342 | 4.8 | 12.9 | 0.00 | 0.28 | 0.28 | 46 | 1009.0 |
| 20260503201401 | 18 | 329 | 3.2 | 12.9 | 0.00 | 0.28 | 0.28 | 46 | 1009.0 |
| 20260503201301 | 18 | 299 | 3.2 | 14.5 | 0.00 | 0.28 | 0.28 | 45 | 1009.0 |
| 20260503201201 | 18 | 222 | 4.8 | 14.5 | 0.00 | 0.28 | 0.28 | 46 | 1008.9 |
| 20260503201003 | 18 | 328 | 6.4 | 16.1 | 0.00 | 0.28 | 0.28 | 45 | 1009.0 |
| 20260503200802 | 19 | 340 | 1.6 | 16.1 | 0.00 | 0.28 | 0.28 | 45 | 1009.0 |
| 20260503200401 | 19 | 146 | 3.2 | 20.9 | 0.00 | 0.28 | 0.28 | 45 | 1009.0 |
| 20260503200302 | 19 | 231 | 9.7 | 20.9 | 0.00 | 0.28 | 0.28 | 44 | 1008.9 |
| 20260503200201 | 19 | 103 | 4.8 | 20.9 | 0.00 | 0.28 | 0.28 | 44 | 1009.1 |
| 20260503200000 | 19 | 275 | 9.7 | 20.9 | 0.00 | 0.28 | 0.28 | 45 | 1009.1 |
| 20260503195802 | 19 | 78 | 6.4 | 20.9 | 0.00 | 0.28 | 0.28 | 45 | 1009.2 |
| 20260503195702 | 19 | 60 | 4.8 | 20.9 | 0.00 | 0.28 | 0.28 | 46 | 1009.2 |
| 20260503195602 | 19 | 356 | 3.2 | 20.9 | 0.00 | 0.28 | 0.28 | 47 | 1009.1 |
| 20260503195402 | 19 | 318 | 3.2 | 17.7 | 0.00 | 0.28 | 0.28 | 46 | 1009.2 |
| 20260503195202 | 18 | 25 | 4.8 | 17.7 | 0.00 | 0.28 | 0.28 | 47 | 1009.2 |
| 20260503195101 | 18 | 316 | 1.6 | 17.7 | 0.00 | 0.28 | 0.28 | 45 | 1009.1 |
| 20260503194901 | 19 | 312 | 8.0 | 19.3 | 0.00 | 0.28 | 0.28 | 48 | 1009.2 |
| 20260503194801 | 19 | 338 | 3.2 | 19.3 | 0.00 | 0.28 | 0.28 | 46 | 1009.2 |
| 20260503194701 | 18 | 229 | 6.4 | 20.9 | 0.00 | 0.28 | 0.28 | 47 | 1009.2 |
| 20260503194502 | 19 | 321 | 11.3 | 20.9 | 0.00 | 0.28 | 0.28 | 47 | 1009.3 |
| 20260503194401 | 19 | 75 | 6.4 | 20.9 | 0.00 | 0.28 | 0.28 | 46 | 1009.4 |
| 20260503194302 | 19 | 327 | 8.0 | 20.9 | 0.00 | 0.28 | 0.28 | 47 | 1009.3 |
| 20260503194202 | 19 | 264 | 6.4 | 20.9 | 0.00 | 0.28 | 0.28 | 47 | 1009.3 |
| 20260503194101 | 19 | 338 | 8.0 | 20.9 | 0.00 | 0.28 | 0.28 | 46 | 1009.2 |
| 20260503194001 | 19 | 145 | 12.9 | 20.9 | 0.00 | 0.28 | 0.28 | 47 | 1009.4 |
| 20260503193901 | 18 | 200 | 4.8 | 20.9 | 0.00 | 0.28 | 0.28 | 46 | 1009.6 |
| 20260503193701 | 18 | 280 | 8.0 | 12.9 | 0.00 | 0.28 | 0.28 | 50 | 1009.5 |
| 20260503193601 | 18 | 350 | 6.4 | 12.9 | 0.00 | 0.28 | 0.28 | 50 | 1009.5 |
| 20260503193502 | 18 | 278 | 3.2 | 12.9 | 0.00 | 0.28 | 0.28 | 50 | 1009.5 |
| 20260503193302 | 18 | 21 | 3.2 | 17.7 | 0.00 | 0.28 | 0.28 | 46 | 1009.5 |
| 20260503193200 | 18 | 142 | 4.8 | 17.7 | 0.00 | 0.28 | 0.28 | 48 | 1009.6 |
| 20260503193101 | 18 | 134 | 3.2 | 17.7 | 0.00 | 0.28 | 0.28 | 48 | 1009.6 |
| 20260503193003 | 18 | 131 | 3.2 | 17.7 | 0.00 | 0.28 | 0.28 | 47 | 1009.6 |
| 20260503192901 | 18 | 25 | 1.6 | 17.7 | 0.00 | 0.28 | 0.28 | 47 | 1009.6 |
| 20260503192702 | 18 | 226 | 4.8 | 17.7 | 0.00 | 0.28 | 0.28 | 48 | 1009.5 |
| 20260503192601 | 18 | 325 | 3.2 | 17.7 | 0.00 | 0.28 | 0.28 | 47 | 1009.4 |
| 20260503192502 | 18 | 312 | 11.3 | 17.7 | 0.00 | 0.28 | 0.28 | 51 | 1009.5 |
| 20260503192401 | 18 | 284 | 0.0 | 12.9 | 0.00 | 0.28 | 0.28 | 52 | 1009.5 |
| 20260503192301 | 18 | 322 | 6.4 | 12.9 | 0.00 | 0.28 | 0.28 | 51 | 1009.6 |
| 20260503192202 | 18 | 38 | 3.2 | 12.9 | 0.00 | 0.28 | 0.28 | 51 | 1009.5 |
| 20260503192101 | 18 | 260 | 9.7 | 12.9 | 0.00 | 0.28 | 0.28 | 51 | 1009.6 |
| 20260503192001 | 18 | 169 | 4.8 | 11.3 | 0.00 | 0.28 | 0.28 | 51 | 1009.6 |
| 20260503191903 | 18 | 60 | 9.7 | 12.9 | 0.00 | 0.28 | 0.28 | 53 | 1009.5 |
| 20260503191801 | 18 | 213 | 1.6 | 12.9 | 0.00 | 0.28 | 0.28 | 53 | 1009.6 |
| 20260503191701 | 18 | 248 | 8.0 | 12.9 | 0.00 | 0.28 | 0.28 | 53 | 1009.7 |
| 20260503191503 | 18 | 356 | 6.4 | 12.9 | 0.00 | 0.28 | 0.28 | 54 | 1009.7 |
| 20260503191401 | 18 | 354 | 4.8 | 12.9 | 0.00 | 0.28 | 0.28 | 55 | 1009.7 |
| 20260503191303 | 18 | 98 | 3.2 | 12.9 | 0.00 | 0.28 | 0.28 | 56 | 1009.6 |
| 20260503191202 | 18 | 340 | 1.6 | 12.9 | 0.00 | 0.28 | 0.28 | 59 | 1009.7 |
| 20260503191101 | 18 | 79 | 6.4 | 12.9 | 0.00 | 0.28 | 0.28 | 56 | 1009.8 |
| 20260503191001 | 18 | 64 | 4.8 | 11.3 | 0.00 | 0.28 | 0.28 | 57 | 1009.8 |
| 20260503190904 | 17 | 83 | 3.2 | 12.9 | 0.00 | 0.28 | 0.28 | 58 | 1009.8 |
| 20260503190801 | 17 | 96 | 4.8 | 12.9 | 0.00 | 0.28 | 0.28 | 57 | 1009.8 |
| 20260503190701 | 17 | 127 | 8.0 | 12.9 | 0.00 | 0.28 | 0.28 | 57 | 1009.7 |
| 20260503190602 | 17 | 84 | 3.2 | 12.9 | 0.00 | 0.28 | 0.28 | 60 | 1009.7 |
| 20260503190501 | 17 | 189 | 3.2 | 14.5 | 0.00 | 0.28 | 0.28 | 58 | 1009.8 |
| 20260503190401 | 17 | 98 | 6.4 | 14.5 | 0.00 | 0.28 | 0.28 | 58 | 1009.8 |
| 20260503190302 | 17 | 51 | 4.8 | 14.5 | 0.00 | 0.28 | 0.28 | 59 | 1009.8 |
| 20260503190104 | 17 | 70 | 3.2 | 14.5 | 0.00 | 0.28 | 0.28 | 61 | 1009.8 |
| 20260503190003 | 17 | 146 | 1.6 | 14.5 | 0.00 | 0.28 | 0.28 | 59 | 1009.8 |
| 20260503185900 | 17 | 192 | 4.8 | 14.5 | 0.00 | 0.28 | 0.28 | 59 | 1009.8 |
| 20260503185800 | 17 | 127 | 11.3 | 17.7 | 0.00 | 0.28 | 0.28 | 61 | 1009.8 |
| 20260503185700 | 17 | 157 | 4.8 | 17.7 | 0.00 | 0.28 | 0.28 | 63 | 1009.8 |
| 20260503185559 | 16 | 75 | 4.8 | 17.7 | 0.00 | 0.28 | 0.28 | 61 | 1009.8 |
| 20260503185500 | 16 | 71 | 6.4 | 17.7 | 0.00 | 0.28 | 0.28 | 60 | 1009.8 |
| 20260503185359 | 16 | 141 | 3.2 | 17.7 | 0.00 | 0.28 | 0.28 | 61 | 1009.7 |
| 20260503185300 | 16 | 141 | 3.2 | 17.7 | 0.00 | 0.28 | 0.28 | 62 | 1009.9 |
| 20260503185200 | 16 | 163 | 3.2 | 17.7 | 0.00 | 0.28 | 0.28 | 61 | 1009.7 |
| 20260503185000 | 16 | 138 | 11.3 | 17.7 | 0.00 | 0.28 | 0.28 | 62 | 1009.8 |
| 20260503184900 | 16 | 113 | 8.0 | 17.7 | 0.00 | 0.28 | 0.28 | 62 | 1009.9 |
| 20260503184800 | 16 | 125 | 8.0 | 17.7 | 0.00 | 0.28 | 0.28 | 62 | 1009.9 |
| 20260503184700 | 16 | 122 | 9.7 | 19.3 | 0.00 | 0.28 | 0.28 | 64 | 1009.8 |
| 20260503184500 | 16 | 124 | 8.0 | 19.3 | 0.00 | 0.28 | 0.28 | 62 | 1009.9 |
| 20260503184401 | 16 | 72 | 6.4 | 19.3 | 0.00 | 0.28 | 0.28 | 64 | 1009.9 |
| 20260503184301 | 16 | 86 | 3.2 | 19.3 | 0.00 | 0.28 | 0.28 | 63 | 1009.9 |
| 20260503184100 | 16 | 113 | 3.2 | 19.3 | 0.00 | 0.28 | 0.28 | 64 | 1010.0 |
| 20260503184000 | 16 | 105 | 9.7 | 19.3 | 0.00 | 0.28 | 0.28 | 64 | 1010.1 |
| 20260503183900 | 16 | 342 | 6.4 | 20.9 | 0.00 | 0.28 | 0.28 | 65 | 1010.1 |
| 20260503183801 | 15 | 130 | 11.3 | 20.9 | 0.00 | 0.28 | 0.28 | 67 | 1010.2 |
| 20260503183700 | 15 | 95 | 6.4 | 20.9 | 0.00 | 0.28 | 0.28 | 68 | 1010.1 |
| 20260503183559 | 15 | 143 | 9.7 | 20.9 | 0.00 | 0.28 | 0.28 | 67 | 1010.2 |
| 20260503183500 | 15 | 143 | 4.8 | 22.5 | 0.00 | 0.28 | 0.28 | 70 | 1010.2 |
| 20260503183400 | 15 | 130 | 12.9 | 22.5 | 0.00 | 0.28 | 0.28 | 69 | 1010.3 |
| 20260503183159 | 15 | 127 | 11.3 | 22.5 | 0.00 | 0.28 | 0.28 | 69 | 1010.2 |
| 20260503183100 | 15 | 122 | 12.9 | 24.1 | 0.00 | 0.28 | 0.28 | 68 | 1010.3 |
| 20260503183001 | 15 | 148 | 12.9 | 24.1 | 0.00 | 0.28 | 0.28 | 69 | 1010.3 |
| 20260503182901 | 14 | 124 | 6.4 | 24.1 | 0.00 | 0.28 | 0.28 | 70 | 1010.3 |
| 20260503182759 | 14 | 110 | 11.3 | 24.1 | 0.00 | 0.28 | 0.28 | 69 | 1010.2 |
| 20260503182701 | 14 | 113 | 9.7 | 24.1 | 0.00 | 0.28 | 0.28 | 68 | 1010.4 |
| 20260503182500 | 14 | 119 | 11.3 | 25.7 | 0.00 | 0.28 | 0.28 | 68 | 1010.4 |
| 20260503182400 | 14 | 123 | 8.0 | 25.7 | 0.00 | 0.28 | 0.28 | 68 | 1010.4 |
| 20260503182301 | 14 | 137 | 16.1 | 25.7 | 0.00 | 0.28 | 0.28 | 68 | 1010.4 |
| 20260503182200 | 14 | 126 | 14.5 | 25.7 | 0.00 | 0.28 | 0.28 | 70 | 1010.5 |
| 20260503182100 | 14 | 155 | 8.0 | 25.7 | 0.00 | 0.28 | 0.28 | 69 | 1010.5 |
| 20260503182003 | 14 | 152 | 11.3 | 25.7 | 0.00 | 0.28 | 0.28 | 68 | 1010.6 |
| 20260503181902 | 14 | 86 | 4.8 | 25.7 | 0.00 | 0.28 | 0.28 | 68 | 1010.6 |
| 20260503181800 | 14 | 97 | 8.0 | 25.7 | 0.00 | 0.28 | 0.28 | 68 | 1010.6 |
| 20260503181700 | 14 | 130 | 4.8 | 24.1 | 0.00 | 0.28 | 0.28 | 69 | 1010.7 |
| 20260503181601 | 14 | 150 | 9.7 | 24.1 | 0.00 | 0.28 | 0.28 | 70 | 1010.7 |
| 20260503181400 | 13 | 90 | 8.0 | 22.5 | 0.03 | 0.28 | 0.28 | 72 | 1010.9 |
| 20260503181300 | 13 | 136 | 12.9 | 22.5 | 0.03 | 0.28 | 0.28 | 71 | 1010.9 |
| 20260503181201 | 13 | 132 | 9.7 | 22.5 | 0.03 | 0.28 | 0.28 | 72 | 1010.9 |
| 20260503181100 | 13 | 123 | 4.8 | 22.5 | 0.03 | 0.28 | 0.28 | 72 | 1010.9 |
| 20260503181000 | 13 | 127 | 6.4 | 22.5 | 0.03 | 0.28 | 0.28 | 71 | 1011.1 |
| 20260503180900 | 13 | 131 | 6.4 | 22.5 | 0.03 | 0.28 | 0.28 | 71 | 1011.0 |
| 20260503180801 | 13 | 120 | 14.5 | 22.5 | 0.03 | 0.28 | 0.28 | 72 | 1011.1 |
| 20260503180600 | 13 | 135 | 6.4 | 16.1 | 0.05 | 0.28 | 0.28 | 72 | 1011.1 |
| 20260503180401 | 13 | 148 | 9.7 | 19.3 | 0.05 | 0.28 | 0.28 | 74 | 1011.1 |
| 20260503180201 | 12 | 140 | 6.4 | 19.3 | 0.05 | 0.28 | 0.28 | 73 | 1011.2 |
| 20260503180059 | 12 | 115 | 11.3 | 19.3 | 0.05 | 0.28 | 0.28 | 73 | 1011.2 |
| 20260503180004 | 12 | 87 | 6.4 | 19.3 | 0.05 | 0.28 | 0.28 | 74 | 1011.2 |
| 20260503175901 | 12 | 140 | 11.3 | 19.3 | 0.05 | 0.28 | 0.28 | 74 | 1011.3 |
| 20260503175702 | 12 | 124 | 6.4 | 19.3 | 0.05 | 0.28 | 0.28 | 75 | 1011.4 |
| 20260503175601 | 12 | 125 | 11.3 | 19.3 | 0.05 | 0.28 | 0.28 | 75 | 1011.3 |
| 20260503175502 | 12 | 176 | 8.0 | 19.3 | 0.05 | 0.28 | 0.28 | 75 | 1011.5 |
| 20260503175301 | 12 | 117 | 11.3 | 14.5 | 0.05 | 0.28 | 0.28 | 78 | 1011.4 |
| 20260503175201 | 12 | 122 | 6.4 | 14.5 | 0.05 | 0.28 | 0.28 | 79 | 1011.5 |
| 20260503175102 | 12 | 121 | 12.9 | 14.5 | 0.05 | 0.28 | 0.28 | 79 | 1011.5 |
| 20260503175002 | 12 | 147 | 6.4 | 16.1 | 0.05 | 0.28 | 0.28 | 79 | 1011.5 |
| 20260503174802 | 11 | 136 | 11.3 | 16.1 | 0.05 | 0.28 | 0.28 | 79 | 1011.6 |
| 20260503174559 | 11 | 134 | 6.4 | 16.1 | 0.05 | 0.28 | 0.28 | 80 | 1011.6 |
| 20260503174503 | 11 | 108 | 14.5 | 16.1 | 0.05 | 0.28 | 0.28 | 80 | 1011.7 |
| 20260503174402 | 11 | 117 | 6.4 | 16.1 | 0.05 | 0.28 | 0.28 | 79 | 1011.7 |
| 20260503174305 | 11 | 125 | 4.8 | 16.1 | 0.05 | 0.28 | 0.28 | 80 | 1011.8 |